createdAt,value
2022-08-14T00:02:08.319Z,3.80
2022-08-14T00:04:42.000Z,3.90
2022-08-14T00:07:13.889Z,4.28
2022-08-14T00:09:56.100Z,3.95
2022-08-14T00:12:33.190Z,4.32
2022-08-14T00:15:19.189Z,4.00
2022-08-14T00:17:53.270Z,3.72
2022-08-14T00:20:31.044Z,4.20
2022-08-14T00:23:12.485Z,3.67
2022-08-14T00:25:58.853Z,4.13
2022-08-14T00:28:35.241Z,4.45
2022-08-14T00:31:05.532Z,4.53
2022-08-14T00:33:50.603Z,4.28
2022-08-14T00:36:36.540Z,4.47
2022-08-14T00:39:18.639Z,4.32
2022-08-14T00:41:47.513Z,4.22
2022-08-14T00:44:14.908Z,4.30
2022-08-14T00:46:49.390Z,3.88
2022-08-14T00:49:17.935Z,4.35
2022-08-14T00:51:48.302Z,3.85
2022-08-14T00:54:21.571Z,4.38
2022-08-14T00:56:55.555Z,4.82
2022-08-14T00:59:24.805Z,4.20
2022-08-14T01:01:54.397Z,4.22
2022-08-14T01:04:51.793Z,4.20
2022-08-14T01:07:10.172Z,4.22
2022-08-14T01:09:39.257Z,5.22
2022-08-14T01:12:07.699Z,3.75
2022-08-14T01:14:35.764Z,4.28
2022-08-14T01:17:03.708Z,4.43
2022-08-14T01:19:49.707Z,4.32
2022-08-14T01:22:18.771Z,4.50
2022-08-14T01:24:47.253Z,3.90
2022-08-14T01:27:18.809Z,4.65
2022-08-14T01:30:00.840Z,4.22
2022-08-14T01:32:37.390Z,4.13
2022-08-14T01:35:17.180Z,4.70
2022-08-14T01:37:56.325Z,3.63
2022-08-14T01:40:37.084Z,4.10
2022-08-14T01:43:18.662Z,4.45
2022-08-14T01:45:57.767Z,4.07
2022-08-14T01:48:34.033Z,4.15
2022-08-14T01:51:06.097Z,4.30
2022-08-14T01:53:54.611Z,4.30
2022-08-14T01:56:37.218Z,4.00
2022-08-14T01:59:22.057Z,4.35
2022-08-14T02:01:58.863Z,4.43
2022-08-14T02:04:54.884Z,3.97
2022-08-14T02:07:34.614Z,4.50
2022-08-14T02:10:08.351Z,4.45
2022-08-14T02:12:40.964Z,4.05
2022-08-14T02:15:10.716Z,4.03
2022-08-14T02:17:37.861Z,4.40
2022-08-14T02:20:05.398Z,4.55
2022-08-14T02:22:33.318Z,4.82
2022-08-14T02:25:01.486Z,4.57
2022-08-14T02:28:22.780Z,4.28
2022-08-14T02:30:16.952Z,4.47
2022-08-14T02:32:45.804Z,4.35
2022-08-14T02:35:19.211Z,4.85
2022-08-14T02:37:49.955Z,4.20
2022-08-14T02:40:32.445Z,4.80
2022-08-14T02:43:02.389Z,5.00
2022-08-14T02:45:42.308Z,4.82
2022-08-14T02:49:01.313Z,4.43
2022-08-14T02:51:01.204Z,5.05
2022-08-14T02:53:33.234Z,4.95
2022-08-14T02:56:10.229Z,4.82
2022-08-14T02:58:50.967Z,5.45
2022-08-14T03:01:21.374Z,4.60
2022-08-14T03:03:51.816Z,5.15
2022-08-14T03:06:35.200Z,4.68
2022-08-14T03:09:15.992Z,5.13
2022-08-14T03:11:44.952Z,4.75
2022-08-14T03:14:12.616Z,5.00
2022-08-14T03:16:45.505Z,5.03
2022-08-14T03:19:17.886Z,4.72
2022-08-14T03:21:46.951Z,6.13
2022-08-14T03:24:23.279Z,5.38
2022-08-14T03:26:57.603Z,5.00
2022-08-14T03:29:26.459Z,4.70
2022-08-14T03:31:53.825Z,5.90
2022-08-14T03:34:24.626Z,5.07
2022-08-14T03:37:39.107Z,4.68
2022-08-14T03:39:59.042Z,5.20
2022-08-14T03:42:35.765Z,4.68
2022-08-14T03:45:26.634Z,5.13
2022-08-14T03:47:58.321Z,5.32
2022-08-14T03:50:27.937Z,4.97
2022-08-14T03:53:03.200Z,5.35
2022-08-14T03:55:30.993Z,5.13
2022-08-14T03:58:00.364Z,5.10
2022-08-14T04:00:43.133Z,5.10
2022-08-14T04:03:17.989Z,5.85
2022-08-14T04:05:50.609Z,5.65
2022-08-14T04:08:29.068Z,5.40
2022-08-14T04:11:01.593Z,5.03
2022-08-14T04:13:33.989Z,5.75
2022-08-14T04:16:10.299Z,5.55
2022-08-14T04:18:45.353Z,5.30
2022-08-14T04:21:14.839Z,5.28
2022-08-14T04:23:44.020Z,5.55
2022-08-14T04:26:14.617Z,5.60
2022-08-14T04:29:05.273Z,5.80
2022-08-14T04:33:10.596Z,5.32
2022-08-14T04:34:24.201Z,6.22
2022-08-14T04:37:13.119Z,5.47
2022-08-14T04:39:58.729Z,5.15
2022-08-14T04:42:47.307Z,5.63
2022-08-14T04:45:23.703Z,5.35
2022-08-14T04:48:10.445Z,5.93
2022-08-14T04:50:44.688Z,5.82
2022-08-14T04:53:19.050Z,6.10
2022-08-14T04:55:51.611Z,5.93
2022-08-14T04:58:32.666Z,5.28
2022-08-14T05:01:01.499Z,5.82
2022-08-14T05:03:31.862Z,5.18
2022-08-14T05:06:01.646Z,5.22
2022-08-14T05:08:32.343Z,5.93
2022-08-14T05:11:19.850Z,5.25
2022-08-14T05:14:17.225Z,6.47
2022-08-14T05:16:33.907Z,5.88
2022-08-14T05:19:18.850Z,5.68
2022-08-14T05:21:59.586Z,6.63
2022-08-14T05:24:28.170Z,5.78
2022-08-14T05:26:55.440Z,5.07
2022-08-14T05:29:22.298Z,6.55
2022-08-14T05:31:49.238Z,6.30
2022-08-14T05:34:28.937Z,5.75
2022-08-14T05:37:02.959Z,6.57
2022-08-14T05:39:31.266Z,6.07
2022-08-14T05:41:58.963Z,6.35
2022-08-14T05:44:30.301Z,5.90
2022-08-14T05:46:58.677Z,6.63
2022-08-14T05:49:33.101Z,6.18
2022-08-14T05:52:02.383Z,6.38
2022-08-14T05:54:35.331Z,6.20
2022-08-14T05:57:04.807Z,5.70
2022-08-14T05:59:38.578Z,6.05
2022-08-14T06:02:10.067Z,6.40
2022-08-14T06:04:38.798Z,5.50
2022-08-14T06:07:06.657Z,5.82
2022-08-14T06:09:36.076Z,7.10
2022-08-14T06:12:11.789Z,6.35
2022-08-14T06:14:39.400Z,6.05
2022-08-14T06:17:06.640Z,5.55
2022-08-14T06:19:33.447Z,5.78
2022-08-14T06:22:00.262Z,5.57
2022-08-14T06:24:30.414Z,6.97
2022-08-14T06:27:03.883Z,5.88
2022-08-14T06:29:33.471Z,5.15
2022-08-14T06:32:38.113Z,5.85
2022-08-14T06:35:03.240Z,5.35
2022-08-14T06:37:51.715Z,5.78
2022-08-14T06:40:29.556Z,5.30
2022-08-14T06:43:04.705Z,5.38
2022-08-14T06:45:38.709Z,6.43
2022-08-14T06:48:18.724Z,5.82
2022-08-14T06:50:48.744Z,5.68
2022-08-14T06:53:17.736Z,6.15
2022-08-14T06:55:58.424Z,5.70
2022-08-14T06:58:29.446Z,5.47
2022-08-14T07:01:23.107Z,4.55
2022-08-14T07:04:18.840Z,4.32
2022-08-14T07:06:54.755Z,4.45
2022-08-14T07:09:25.961Z,4.03
2022-08-14T07:11:55.549Z,3.55
2022-08-14T07:14:23.258Z,3.65
2022-08-14T07:16:50.111Z,3.97
2022-08-14T07:19:21.012Z,4.65
2022-08-14T07:21:48.219Z,3.63
2022-08-14T07:24:21.654Z,4.18
2022-08-14T07:26:49.278Z,3.85
2022-08-14T07:29:17.417Z,4.10
2022-08-14T07:31:44.964Z,3.60
2022-08-14T07:34:13.440Z,4.03
2022-08-14T07:37:01.184Z,3.92
2022-08-14T07:39:28.396Z,3.30
2022-08-14T07:41:55.393Z,3.45
2022-08-14T07:44:28.887Z,3.33
2022-08-14T07:47:00.672Z,3.80
2022-08-14T07:49:28.741Z,3.70
2022-08-14T07:51:56.840Z,3.88
2022-08-14T07:54:30.235Z,3.03
2022-08-14T07:57:12.324Z,3.10
2022-08-14T07:59:44.469Z,3.47
2022-08-14T08:02:17.341Z,3.38
2022-08-14T08:04:53.024Z,3.10
2022-08-14T08:07:22.802Z,3.40
2022-08-14T08:09:53.718Z,3.90
2022-08-14T08:12:26.231Z,4.40
2022-08-14T08:15:02.936Z,3.45
2022-08-14T08:17:42.330Z,3.13
2022-08-14T08:20:16.773Z,4.18
2022-08-14T08:22:49.699Z,2.97
2022-08-14T08:25:18.862Z,3.55
2022-08-14T08:28:19.807Z,3.20
2022-08-14T08:30:54.818Z,2.95
2022-08-14T08:33:32.293Z,3.30
2022-08-14T08:36:12.670Z,3.13
2022-08-14T08:39:14.569Z,3.25
2022-08-14T08:41:43.355Z,3.45
2022-08-14T08:44:17.404Z,2.95
2022-08-14T08:46:59.367Z,2.70
2022-08-14T08:49:43.344Z,2.67
2022-08-14T08:52:24.425Z,2.83
2022-08-14T08:54:55.945Z,3.10
2022-08-14T08:57:24.211Z,2.95
2022-08-14T08:59:54.703Z,2.33
2022-08-14T09:02:22.681Z,3.83
2022-08-14T09:05:02.141Z,3.42
2022-08-14T09:07:31.193Z,2.83
2022-08-14T09:09:59.021Z,3.90
2022-08-14T09:12:31.778Z,3.25
2022-08-14T09:15:14.168Z,3.53
2022-08-14T09:17:42.911Z,3.50
2022-08-14T09:20:12.329Z,3.15
2022-08-14T09:22:47.325Z,4.63
2022-08-14T09:25:16.811Z,3.60
2022-08-14T09:27:43.997Z,3.60
2022-08-14T09:30:31.030Z,3.40
2022-08-14T09:33:10.975Z,3.58
2022-08-14T09:36:18.464Z,3.50
2022-08-14T09:39:30.202Z,3.50
2022-08-14T09:42:21.004Z,3.67
2022-08-14T09:45:08.697Z,3.50
2022-08-14T09:47:43.488Z,3.42
2022-08-14T09:50:16.758Z,3.40
2022-08-14T09:52:55.107Z,3.60
2022-08-14T09:55:26.148Z,3.63
2022-08-14T09:58:14.849Z,3.80
2022-08-14T10:00:52.798Z,3.78
2022-08-14T10:06:28.385Z,4.07
2022-08-14T10:09:06.407Z,3.50
2022-08-14T10:11:43.447Z,3.15
2022-08-14T10:14:34.711Z,3.63
2022-08-14T10:17:05.108Z,3.55
2022-08-14T10:19:35.412Z,3.10
2022-08-14T10:23:12.519Z,3.15
2022-08-14T10:25:00.541Z,3.13
2022-08-14T10:27:28.237Z,3.30
2022-08-14T10:29:59.812Z,2.97
2022-08-14T10:32:28.273Z,2.95
2022-08-14T10:35:13.794Z,3.38
2022-08-14T10:37:48.145Z,3.03
2022-08-14T10:40:43.646Z,2.67
2022-08-14T10:43:26.175Z,3.08
2022-08-14T10:46:03.684Z,3.17
2022-08-14T10:49:04.498Z,3.17
2022-08-14T10:51:36.145Z,2.95
2022-08-14T10:54:25.971Z,2.50
2022-08-14T10:56:57.790Z,3.25
2022-08-14T10:59:31.050Z,2.67
2022-08-14T11:02:02.447Z,2.92
2022-08-14T11:04:30.572Z,3.03
2022-08-14T11:06:58.577Z,2.60
2022-08-14T11:09:25.958Z,2.70
2022-08-14T11:12:39.908Z,2.42
2022-08-14T11:14:59.474Z,2.40
2022-08-14T11:17:33.459Z,2.50
2022-08-14T11:20:02.820Z,2.53
2022-08-14T11:22:56.209Z,2.80
2022-08-14T11:25:21.400Z,3.78
2022-08-14T11:27:49.462Z,3.30
2022-08-14T11:30:51.482Z,2.45
2022-08-14T11:33:09.028Z,3.50
2022-08-14T11:35:47.883Z,3.30
2022-08-14T11:38:17.878Z,2.70
2022-08-14T11:40:47.201Z,2.33
2022-08-14T11:43:15.448Z,2.50
2022-08-14T11:45:48.832Z,2.88
2022-08-14T11:49:04.323Z,3.25
2022-08-14T11:51:14.380Z,2.95
2022-08-14T11:53:50.099Z,2.95
2022-08-14T11:56:17.486Z,2.55
2022-08-14T11:58:53.596Z,2.83
2022-08-14T12:01:28.954Z,2.70
2022-08-14T12:04:07.702Z,2.90
2022-08-14T12:07:04.922Z,2.83
2022-08-14T12:09:38.384Z,3.40
2022-08-14T12:12:34.796Z,3.40
2022-08-14T12:15:02.809Z,3.05
2022-08-14T12:17:34.270Z,3.28
2022-08-14T12:20:15.078Z,3.65
2022-08-14T12:22:52.372Z,3.83
2022-08-14T12:25:24.780Z,3.50
2022-08-14T12:28:01.154Z,3.37
2022-08-14T12:30:42.496Z,3.67
2022-08-14T12:33:47.197Z,4.00
2022-08-14T12:36:21.599Z,3.88
2022-08-14T12:38:54.407Z,3.65
2022-08-14T12:41:24.110Z,4.10
2022-08-14T12:46:30.806Z,3.83
2022-08-14T12:49:00.374Z,4.45
2022-08-14T12:51:30.947Z,3.60
2022-08-14T12:54:00.244Z,3.65
2022-08-14T12:56:33.266Z,3.95
2022-08-14T12:59:02.123Z,4.20
2022-08-14T13:01:56.543Z,4.10
2022-08-14T13:04:20.505Z,3.20
2022-08-14T13:06:50.974Z,3.72
2022-08-14T13:09:19.182Z,3.35
2022-08-14T13:11:59.203Z,3.47
2022-08-14T13:14:41.798Z,3.70
2022-08-14T13:17:11.739Z,3.65
2022-08-14T13:19:40.576Z,3.60
2022-08-14T13:22:09.577Z,4.55
2022-08-14T13:24:39.857Z,3.75
2022-08-14T13:27:09.963Z,3.42
2022-08-14T13:29:43.748Z,3.00
2022-08-14T13:32:14.255Z,3.80
2022-08-14T13:34:45.529Z,3.17
2022-08-14T13:37:15.584Z,3.45
2022-08-14T13:39:56.773Z,3.22
2022-08-14T13:42:30.163Z,3.47
2022-08-14T13:45:00.394Z,4.05
2022-08-14T13:47:30.404Z,3.75
2022-08-14T13:50:00.561Z,3.25
2022-08-14T13:52:55.627Z,2.78
2022-08-14T13:55:28.873Z,3.78
2022-08-14T13:58:04.090Z,3.28
2022-08-14T14:00:51.754Z,3.30
2022-08-14T14:03:22.545Z,3.17
2022-08-14T14:05:55.032Z,3.70
2022-08-14T14:08:43.675Z,4.00
2022-08-14T14:11:16.141Z,3.80
2022-08-14T14:13:45.934Z,3.55
2022-08-14T14:16:15.218Z,3.40
2022-08-14T14:18:52.393Z,3.30
2022-08-14T14:21:21.814Z,3.70
2022-08-14T14:23:50.039Z,3.38
2022-08-14T14:26:23.057Z,4.13
2022-08-14T14:28:56.946Z,6.30
2022-08-14T14:31:30.376Z,4.03
2022-08-14T14:34:19.915Z,3.70
2022-08-14T14:36:56.848Z,4.43
2022-08-14T14:39:27.383Z,3.83
2022-08-14T14:41:59.393Z,4.03
2022-08-14T14:44:34.663Z,3.63
2022-08-14T14:47:01.942Z,4.13
2022-08-14T14:49:50.928Z,3.60
2022-08-14T14:52:27.107Z,3.45
2022-08-14T14:54:57.058Z,3.70
2022-08-14T14:57:34.564Z,3.70
2022-08-14T15:00:25.110Z,3.35
2022-08-14T15:02:59.601Z,4.20
2022-08-14T15:05:28.210Z,3.65
2022-08-14T15:07:55.451Z,3.40
2022-08-14T15:10:26.784Z,3.58
2022-08-14T15:13:00.343Z,3.80
2022-08-14T15:15:32.726Z,3.35
2022-08-14T15:18:01.084Z,3.80
2022-08-14T15:20:30.961Z,4.07
2022-08-14T15:23:08.100Z,3.90
2022-08-14T15:25:40.788Z,3.65
2022-08-14T15:28:20.831Z,3.78
2022-08-14T15:30:50.996Z,3.53
2022-08-14T15:34:13.271Z,3.80
2022-08-14T15:36:31.317Z,3.75
2022-08-14T15:38:59.426Z,3.80
2022-08-14T15:41:26.934Z,4.25
2022-08-14T15:44:01.353Z,3.55
2022-08-14T15:46:43.059Z,3.85
2022-08-14T15:49:12.674Z,3.50
2022-08-14T15:51:42.291Z,3.47
2022-08-14T15:54:11.376Z,4.32
2022-08-14T15:56:42.212Z,3.80
2022-08-14T15:59:13.099Z,3.35
2022-08-14T16:04:23.710Z,4.00
2022-08-14T16:06:54.780Z,3.45
2022-08-14T16:09:22.933Z,4.10
2022-08-14T16:11:54.077Z,3.47
2022-08-14T16:14:21.991Z,3.75
2022-08-14T16:17:00.590Z,4.20
2022-08-14T16:19:44.206Z,3.83
2022-08-14T16:22:57.203Z,3.90
2022-08-14T16:25:03.088Z,4.68
2022-08-14T16:27:37.293Z,3.65
2022-08-14T16:30:20.514Z,3.72
2022-08-14T16:32:56.811Z,3.78
2022-08-14T16:35:43.028Z,3.60
2022-08-14T16:38:19.112Z,3.05
2022-08-14T16:40:47.320Z,3.95
2022-08-14T16:43:15.090Z,3.72
2022-08-14T16:45:43.911Z,3.53
2022-08-14T16:48:55.354Z,3.35
2022-08-14T16:50:59.072Z,4.10
2022-08-14T16:53:27.755Z,3.70
2022-08-14T16:56:23.153Z,3.80
2022-08-14T16:59:51.767Z,4.15
2022-08-14T17:02:11.175Z,3.78
2022-08-14T17:04:41.017Z,3.47
2022-08-14T17:07:12.876Z,4.20
2022-08-14T17:09:53.148Z,4.00
2022-08-14T17:12:34.912Z,4.03
2022-08-14T17:15:14.964Z,4.15
2022-08-14T17:17:44.399Z,4.40
2022-08-14T17:20:54.503Z,3.50
2022-08-14T17:23:11.350Z,3.83
2022-08-14T17:25:39.018Z,3.50
2022-08-14T17:28:52.620Z,4.20
2022-08-14T17:31:08.940Z,3.95
2022-08-14T17:33:40.874Z,3.90
2022-08-14T17:36:24.634Z,4.47
2022-08-14T17:39:08.533Z,4.22
2022-08-14T17:41:43.729Z,3.83
2022-08-14T17:44:45.105Z,4.10
2022-08-14T17:47:14.722Z,4.28
2022-08-14T17:49:51.751Z,4.00
2022-08-14T17:52:34.598Z,3.78
2022-08-14T17:55:06.502Z,3.60
2022-08-14T17:57:35.350Z,4.20
2022-08-14T18:02:50.635Z,4.10
2022-08-14T18:05:22.824Z,3.70
2022-08-14T18:08:31.295Z,4.28
2022-08-14T18:10:55.235Z,4.43
2022-08-14T18:13:50.143Z,3.83
2022-08-14T18:16:20.439Z,4.55
2022-08-14T18:18:51.195Z,3.83
2022-08-14T18:21:42.320Z,4.38
2022-08-14T18:24:20.250Z,4.60
2022-08-14T18:27:09.376Z,4.60
2022-08-14T18:29:55.011Z,5.05
2022-08-14T18:32:31.951Z,4.28
2022-08-14T18:35:11.255Z,4.63
2022-08-14T18:37:40.833Z,4.03
2022-08-14T18:40:18.066Z,4.10
2022-08-14T18:43:02.181Z,4.72
2022-08-14T18:45:33.959Z,4.13
2022-08-14T18:48:18.061Z,4.07
2022-08-14T18:50:52.311Z,4.15
2022-08-14T18:53:24.750Z,4.03
2022-08-14T18:56:09.313Z,4.18
2022-08-14T18:58:56.829Z,4.32
2022-08-14T19:01:29.986Z,4.22
2022-08-14T19:03:59.206Z,4.07
2022-08-14T19:06:38.296Z,3.90
2022-08-14T19:09:05.647Z,4.47
2022-08-14T19:11:32.749Z,4.68
2022-08-14T19:14:04.945Z,4.70
2022-08-14T19:16:34.958Z,5.15
2022-08-14T19:19:04.546Z,5.38
2022-08-14T19:21:38.481Z,6.05
2022-08-14T19:24:26.809Z,5.35
2022-08-14T19:27:24.082Z,5.53
2022-08-14T19:30:11.134Z,5.28
2022-08-14T19:32:50.710Z,5.75
2022-08-14T19:35:48.569Z,5.25
2022-08-14T19:38:53.525Z,5.80
2022-08-14T19:41:34.345Z,6.47
2022-08-14T19:44:17.111Z,6.85
2022-08-14T19:47:01.245Z,6.85
2022-08-14T19:50:30.716Z,6.15
2022-08-14T19:52:29.892Z,6.03
2022-08-14T19:54:58.059Z,5.65
2022-08-14T19:57:29.048Z,5.78
2022-08-14T20:00:28.639Z,5.07
2022-08-14T20:03:10.997Z,4.72
2022-08-14T20:05:45.438Z,5.80
2022-08-14T20:10:58.563Z,6.10
2022-08-14T20:11:15.008Z,5.00
2022-08-14T20:13:56.659Z,5.45
2022-08-14T20:16:32.650Z,6.15
2022-08-14T20:19:16.793Z,6.20
2022-08-14T20:21:58.406Z,6.25
2022-08-14T20:24:40.911Z,7.22
2022-08-14T20:30:28.208Z,7.53
2022-08-14T20:32:58.543Z,8.00
2022-08-14T20:35:38.579Z,6.45
2022-08-14T20:38:29.649Z,6.38
2022-08-14T20:41:10.713Z,5.22
2022-08-14T20:43:59.736Z,5.95
2022-08-14T20:46:39.489Z,5.28
2022-08-14T20:49:16.086Z,4.78
2022-08-14T20:51:58.580Z,5.13
2022-08-14T20:54:33.991Z,4.93
2022-08-14T20:57:09.626Z,5.05
2022-08-14T20:59:45.467Z,4.78
2022-08-14T21:02:30.513Z,4.82
2022-08-14T21:05:16.637Z,4.95
2022-08-14T21:07:51.274Z,4.70
2022-08-14T21:10:35.770Z,4.97
2022-08-14T21:13:26.045Z,4.50
2022-08-14T21:15:57.101Z,5.47
2022-08-14T21:18:30.408Z,4.60
2022-08-14T21:21:06.978Z,4.20
2022-08-14T21:23:54.673Z,4.70
2022-08-14T21:26:50.648Z,4.90
2022-08-14T21:31:55.851Z,5.00
2022-08-14T21:34:27.255Z,4.95
2022-08-14T21:37:07.782Z,4.43
2022-08-14T21:39:36.106Z,4.78
2022-08-14T21:42:05.816Z,5.15
2022-08-14T21:44:34.353Z,4.20
2022-08-14T21:47:10.236Z,4.97
2022-08-14T21:49:39.130Z,5.25
2022-08-14T21:52:51.141Z,5.32
2022-08-14T21:55:09.338Z,4.63
2022-08-14T21:58:44.848Z,4.45
2022-08-14T22:00:36.032Z,4.72
2022-08-14T22:03:06.305Z,5.20
2022-08-14T22:05:37.949Z,5.10
2022-08-14T22:08:06.671Z,5.18
2022-08-14T22:10:35.916Z,5.45
2022-08-14T22:13:05.331Z,5.25
2022-08-14T22:15:32.830Z,5.85
2022-08-14T22:18:00.356Z,5.22
2022-08-14T22:20:29.963Z,4.97
2022-08-14T22:22:58.288Z,5.30
2022-08-14T22:25:33.207Z,4.75
2022-08-14T22:28:01.304Z,4.68
2022-08-14T22:30:28.204Z,4.88
2022-08-14T22:32:58.461Z,4.93
2022-08-14T22:35:28.325Z,4.78
2022-08-14T22:38:34.765Z,4.80
2022-08-14T22:41:12.548Z,4.43
2022-08-14T22:43:35.310Z,5.60
2022-08-14T22:46:06.006Z,5.20
2022-08-14T22:48:33.958Z,4.88
2022-08-14T22:51:06.340Z,4.93
2022-08-14T22:53:34.321Z,5.05
2022-08-14T22:56:01.200Z,4.57
2022-08-14T22:58:34.843Z,4.93
2022-08-14T23:01:10.194Z,5.35
2022-08-14T23:03:42.186Z,5.28
2022-08-14T23:07:01.302Z,4.85
2022-08-14T23:09:02.219Z,5.03
2022-08-14T23:11:46.860Z,5.20
2022-08-14T23:14:16.017Z,4.90
2022-08-14T23:16:52.297Z,5.57
2022-08-14T23:19:33.547Z,4.88
2022-08-14T23:22:01.723Z,5.63
2022-08-14T23:24:28.768Z,5.55
2022-08-14T23:26:56.098Z,4.75
2022-08-14T23:29:22.935Z,5.30
2022-08-14T23:31:49.781Z,4.80
2022-08-14T23:34:21.436Z,5.68
2022-08-14T23:36:54.565Z,5.60
2022-08-14T23:39:32.143Z,5.47
2022-08-14T23:42:09.383Z,6.05
2022-08-14T23:44:38.088Z,4.70
2022-08-14T23:47:11.072Z,4.88
2022-08-14T23:50:03.530Z,5.20
2022-08-14T23:52:50.820Z,5.13
2022-08-14T23:55:27.437Z,5.00
2022-08-14T23:57:57.678Z,5.20
